createdAt,value
2023-03-07T00:01:00.588Z,31.25
2023-03-07T00:03:27.730Z,30.52
2023-03-07T00:06:10.326Z,31.60
2023-03-07T00:08:37.674Z,30.83
2023-03-07T00:11:07.596Z,29.85
2023-03-07T00:13:38.312Z,31.02
2023-03-07T00:16:18.002Z,34.95
2023-03-07T00:18:44.938Z,28.65
2023-03-07T00:21:14.828Z,32.50
2023-03-07T00:23:44.305Z,27.30
2023-03-07T00:26:17.859Z,28.33
2023-03-07T00:28:48.193Z,28.30
2023-03-07T00:31:14.976Z,37.47
2023-03-07T00:33:42.328Z,30.58
2023-03-07T00:36:16.684Z,30.00
2023-03-07T00:38:44.852Z,31.58
2023-03-07T00:41:24.760Z,29.92
2023-03-07T00:43:52.351Z,31.77
2023-03-07T00:46:20.728Z,32.08
2023-03-07T00:48:48.245Z,30.83
2023-03-07T00:51:17.452Z,28.80
2023-03-07T00:53:44.644Z,28.33
2023-03-07T00:56:37.939Z,31.50
2023-03-07T00:59:04.778Z,31.67
2023-03-07T01:01:31.772Z,29.00
2023-03-07T01:03:58.649Z,30.25
2023-03-07T01:06:28.999Z,29.13
2023-03-07T01:09:02.115Z,29.98
2023-03-07T01:11:30.645Z,30.57
2023-03-07T01:14:00.125Z,28.80
2023-03-07T01:16:31.034Z,28.90
2023-03-07T01:19:12.279Z,27.05
2023-03-07T01:21:41.637Z,26.77
2023-03-07T01:24:14.119Z,29.85
2023-03-07T01:26:40.959Z,31.40
2023-03-07T01:29:08.453Z,32.22
2023-03-07T01:31:35.741Z,29.40
2023-03-07T01:34:03.796Z,28.33
2023-03-07T01:36:34.099Z,27.58
2023-03-07T01:39:07.638Z,27.35
2023-03-07T01:41:37.190Z,28.15
2023-03-07T01:44:14.915Z,28.65
2023-03-07T01:46:53.393Z,27.83
2023-03-07T01:49:35.092Z,28.63
2023-03-07T01:52:04.703Z,29.75
2023-03-07T01:54:34.323Z,27.63
2023-03-07T01:57:03.164Z,29.80
2023-03-07T01:59:35.096Z,29.20
2023-03-07T02:02:09.069Z,28.67
2023-03-07T02:04:58.060Z,28.00
2023-03-07T02:07:30.755Z,29.88
2023-03-07T02:10:00.170Z,26.73
2023-03-07T02:12:27.585Z,27.25
2023-03-07T02:14:54.391Z,25.30
2023-03-07T02:17:21.188Z,24.25
2023-03-07T02:20:41.983Z,23.42
2023-03-07T02:23:13.826Z,22.88
2023-03-07T02:25:49.577Z,21.33
2023-03-07T02:28:18.989Z,23.98
2023-03-07T02:31:02.937Z,21.83
2023-03-07T02:33:30.068Z,21.88
2023-03-07T02:36:03.421Z,25.15
2023-03-07T02:38:33.432Z,21.52
2023-03-07T02:41:00.212Z,22.10
2023-03-07T02:43:27.297Z,22.95
2023-03-07T02:45:55.618Z,20.02
2023-03-07T02:48:22.365Z,22.67
2023-03-07T02:50:49.476Z,20.02
2023-03-07T02:53:16.488Z,18.05
2023-03-07T02:55:43.356Z,18.25
2023-03-07T02:58:10.173Z,17.98
2023-03-07T03:00:37.183Z,19.48
2023-03-07T03:03:04.161Z,16.63
2023-03-07T03:05:31.159Z,15.38
2023-03-07T03:07:57.942Z,18.08
2023-03-07T03:10:24.728Z,16.63
2023-03-07T03:12:51.489Z,16.25
2023-03-07T03:15:18.292Z,15.45
2023-03-07T03:17:45.110Z,16.00
2023-03-07T03:20:12.961Z,15.00
2023-03-07T03:22:41.202Z,14.70
2023-03-07T03:25:11.665Z,11.98
2023-03-07T03:27:39.123Z,12.93
2023-03-07T03:30:08.627Z,13.32
2023-03-07T03:32:38.327Z,13.30
2023-03-07T03:35:06.964Z,11.85
2023-03-07T03:37:34.223Z,11.45
2023-03-07T03:40:01.123Z,12.95
2023-03-07T03:42:28.191Z,12.35
2023-03-07T03:44:54.951Z,12.75
2023-03-07T03:47:21.724Z,11.85
2023-03-07T03:49:48.541Z,12.32
2023-03-07T03:52:15.324Z,14.10
2023-03-07T03:54:42.112Z,12.07
2023-03-07T03:57:08.902Z,11.88
2023-03-07T03:59:35.709Z,12.38
2023-03-07T04:02:02.526Z,13.30
2023-03-07T04:04:29.403Z,13.00
2023-03-07T04:06:56.163Z,13.25
2023-03-07T04:09:22.918Z,12.10
2023-03-07T04:11:49.739Z,11.82
2023-03-07T04:14:16.527Z,13.55
2023-03-07T04:16:43.289Z,12.93
2023-03-07T04:19:12.909Z,13.48
2023-03-07T04:21:40.755Z,14.82
2023-03-07T04:24:08.942Z,13.20
2023-03-07T04:26:36.658Z,15.77
2023-03-07T04:29:04.353Z,13.95
2023-03-07T04:31:31.498Z,14.73
2023-03-07T04:33:58.621Z,12.75
2023-03-07T04:36:25.768Z,13.55
2023-03-07T04:38:52.882Z,11.68
2023-03-07T04:41:23.538Z,13.63
2023-03-07T04:43:50.328Z,14.05
2023-03-07T04:46:18.935Z,15.02
2023-03-07T04:48:46.647Z,12.93
2023-03-07T04:51:13.936Z,12.82
2023-03-07T04:53:40.725Z,17.60
2023-03-07T04:56:09.040Z,13.55
2023-03-07T04:58:36.946Z,15.23
2023-03-07T05:01:04.983Z,14.20
2023-03-07T05:03:32.664Z,19.40
2023-03-07T05:06:14.488Z,13.95
2023-03-07T05:08:41.396Z,11.52
2023-03-07T05:11:08.231Z,6.88
2023-03-07T05:13:35.127Z,5.90
2023-03-07T05:16:02.009Z,5.15
2023-03-07T05:18:29.398Z,8.15
2023-03-07T05:20:56.337Z,6.07
2023-03-07T05:23:23.145Z,6.20
2023-03-07T05:25:50.364Z,7.45
2023-03-07T05:28:17.297Z,5.57
2023-03-07T05:30:45.731Z,5.70
2023-03-07T05:33:12.844Z,4.78
2023-03-07T05:35:39.890Z,4.82
2023-03-07T05:38:08.081Z,7.53
2023-03-07T05:40:35.163Z,6.72
2023-03-07T05:43:02.308Z,5.18
2023-03-07T05:45:29.199Z,4.65
2023-03-07T05:47:55.945Z,5.88
2023-03-07T05:50:22.722Z,7.65
2023-03-07T05:52:49.822Z,3.55
2023-03-07T05:55:16.616Z,5.97
2023-03-07T05:57:43.419Z,2.42
2023-03-07T06:00:11.377Z,3.58
2023-03-07T06:02:38.258Z,5.68
2023-03-07T06:05:05.431Z,3.85
2023-03-07T06:07:32.234Z,4.13
2023-03-07T06:09:59.058Z,7.57
2023-03-07T06:12:25.958Z,8.15
2023-03-07T06:14:52.736Z,4.15
2023-03-07T06:17:19.542Z,4.65
2023-03-07T06:19:46.306Z,3.38
2023-03-07T06:22:13.117Z,6.50
2023-03-07T06:24:40.004Z,3.22
2023-03-07T06:27:06.752Z,4.13
2023-03-07T06:29:33.581Z,2.80
2023-03-07T06:32:00.515Z,5.25
2023-03-07T06:34:27.486Z,4.82
2023-03-07T06:36:54.436Z,5.13
2023-03-07T06:39:21.473Z,2.80
2023-03-07T06:41:51.590Z,5.65
2023-03-07T06:44:18.773Z,7.97
2023-03-07T06:46:46.290Z,8.95
2023-03-07T06:49:13.394Z,3.13
2023-03-07T06:51:40.552Z,6.70
2023-03-07T06:54:07.363Z,6.97
2023-03-07T06:56:35.231Z,10.10
2023-03-07T06:59:02.584Z,4.10
2023-03-07T07:01:29.434Z,4.10
2023-03-07T07:03:57.167Z,2.80
2023-03-07T07:06:24.283Z,7.40
2023-03-07T07:08:55.800Z,3.30
2023-03-07T07:11:24.001Z,4.47
2023-03-07T07:13:50.962Z,4.22
2023-03-07T07:16:18.827Z,7.18
2023-03-07T07:18:46.100Z,3.75
2023-03-07T07:21:12.924Z,4.93
2023-03-07T07:23:40.003Z,3.53
2023-03-07T07:26:06.901Z,5.82
2023-03-07T07:28:33.756Z,3.40
2023-03-07T07:31:00.638Z,11.73
2023-03-07T07:33:27.677Z,4.43
2023-03-07T07:35:54.562Z,6.80
2023-03-07T07:38:21.367Z,5.75
2023-03-07T07:40:48.184Z,8.93
2023-03-07T07:43:16.387Z,3.92
2023-03-07T07:45:43.510Z,11.57
2023-03-07T07:48:10.497Z,5.45
2023-03-07T07:50:37.672Z,10.15
2023-03-07T07:53:04.458Z,3.10
2023-03-07T07:55:31.207Z,4.30
2023-03-07T07:57:58.046Z,4.97
2023-03-07T08:00:25.172Z,5.65
2023-03-07T08:02:52.080Z,6.88
2023-03-07T08:05:21.460Z,5.25
2023-03-07T08:07:49.593Z,4.15
2023-03-07T08:10:17.952Z,5.05
2023-03-07T08:12:48.443Z,5.97
2023-03-07T08:15:16.994Z,3.47
2023-03-07T08:17:44.439Z,3.85
2023-03-07T08:20:11.581Z,3.58
2023-03-07T08:22:39.153Z,3.17
2023-03-07T08:25:17.772Z,5.43
2023-03-07T08:27:44.893Z,2.75
2023-03-07T08:30:13.169Z,10.02
2023-03-07T08:32:40.030Z,5.05
2023-03-07T08:35:07.626Z,6.50
2023-03-07T08:37:35.241Z,6.15
2023-03-07T08:40:02.760Z,6.38
2023-03-07T08:42:30.139Z,4.65
2023-03-07T08:44:56.962Z,4.35
2023-03-07T08:47:24.286Z,4.45
2023-03-07T08:49:51.379Z,3.70
2023-03-07T08:52:18.245Z,7.25
2023-03-07T08:54:45.077Z,10.60
2023-03-07T08:57:11.839Z,7.47
2023-03-07T08:59:38.635Z,7.93
2023-03-07T09:02:05.630Z,4.30
2023-03-07T09:04:32.476Z,3.72
2023-03-07T09:07:01.517Z,5.85
2023-03-07T09:09:30.136Z,11.63
2023-03-07T09:11:57.545Z,4.28
2023-03-07T09:14:24.500Z,7.05
2023-03-07T09:16:53.813Z,2.38
2023-03-07T09:19:20.665Z,4.70
2023-03-07T09:21:47.489Z,3.47
2023-03-07T09:24:14.234Z,4.43
2023-03-07T09:26:41.017Z,5.35
2023-03-07T09:29:07.871Z,3.03
2023-03-07T09:31:34.729Z,8.40
2023-03-07T09:34:01.489Z,5.35
2023-03-07T09:36:28.902Z,2.22
2023-03-07T09:38:58.105Z,7.88
2023-03-07T09:41:48.686Z,4.90
2023-03-07T09:44:36.541Z,1.90
2023-03-07T09:47:35.730Z,2.97
2023-03-07T09:50:12.465Z,5.32
2023-03-07T09:52:41.540Z,7.55
2023-03-07T09:55:19.343Z,3.00
2023-03-07T09:57:55.295Z,4.20
2023-03-07T10:00:27.688Z,3.83
2023-03-07T10:03:09.497Z,4.38
2023-03-07T10:05:44.285Z,4.35
2023-03-07T10:08:18.591Z,4.32
2023-03-07T10:11:23.196Z,3.42
2023-03-07T10:14:38.462Z,4.90
2023-03-07T10:17:35.105Z,4.18
2023-03-07T10:20:36.474Z,4.20
2023-03-07T10:23:19.862Z,7.88
2023-03-07T10:26:00.354Z,3.78
2023-03-07T10:28:31.683Z,3.13
2023-03-07T10:31:24.306Z,4.50
2023-03-07T10:33:53.422Z,2.70
2023-03-07T10:36:51.585Z,3.22
2023-03-07T10:39:40.056Z,2.58
2023-03-07T10:42:13.724Z,2.58
2023-03-07T10:44:42.005Z,3.17
2023-03-07T10:47:29.700Z,7.65
2023-03-07T10:50:44.679Z,4.18
2023-03-07T10:53:30.209Z,3.47
2023-03-07T10:56:18.941Z,2.40
2023-03-07T10:59:09.521Z,2.38
2023-03-07T11:01:39.207Z,2.67
2023-03-07T11:04:44.695Z,4.18
2023-03-07T11:07:30.371Z,7.35
2023-03-07T11:09:59.227Z,1.67
2023-03-07T11:12:29.447Z,6.47
2023-03-07T11:14:58.827Z,3.53
2023-03-07T11:17:49.327Z,4.55
2023-03-07T11:20:24.920Z,8.30
2023-03-07T11:23:23.241Z,11.25
2023-03-07T11:25:52.411Z,9.95
2023-03-07T11:28:35.692Z,6.80
2023-03-07T11:31:23.229Z,6.93
2023-03-07T11:34:41.215Z,7.43
2023-03-07T11:37:43.225Z,9.18
2023-03-07T11:41:00.235Z,7.55
2023-03-07T11:44:10.593Z,6.38
2023-03-07T11:47:00.945Z,5.05
2023-03-07T11:49:43.387Z,7.38
2023-03-07T11:52:41.198Z,5.75
2023-03-07T11:55:37.365Z,5.70
2023-03-07T11:58:50.787Z,5.72
2023-03-07T12:01:57.059Z,4.72
2023-03-07T12:04:59.596Z,5.97
2023-03-07T12:08:08.848Z,6.65
2023-03-07T12:11:13.561Z,4.78
2023-03-07T12:14:18.683Z,3.17
2023-03-07T12:17:18.593Z,5.30
2023-03-07T12:20:23.788Z,6.95
2023-03-07T12:25:38.630Z,3.22
2023-03-07T12:28:22.544Z,3.10
2023-03-07T12:31:11.460Z,3.88
2023-03-07T12:34:03.386Z,3.78
2023-03-07T12:36:49.992Z,2.85
2023-03-07T12:39:31.353Z,1.80
2023-03-07T12:42:15.362Z,4.80
2023-03-07T12:44:51.198Z,3.28
2023-03-07T12:47:57.935Z,5.32
2023-03-07T12:50:37.431Z,3.17
2023-03-07T12:53:32.336Z,2.95
2023-03-07T12:58:41.441Z,5.00
2023-03-07T13:01:32.440Z,1.63
2023-03-07T13:04:17.777Z,5.30
2023-03-07T13:06:46.103Z,4.25
2023-03-07T13:09:26.548Z,3.00
2023-03-07T13:12:25.234Z,4.15
2023-03-07T13:15:06.474Z,4.65
2023-03-07T13:17:35.897Z,3.33
2023-03-07T13:20:27.533Z,5.85
2023-03-07T13:22:54.319Z,3.05
2023-03-07T13:25:21.128Z,3.28
2023-03-07T13:28:31.302Z,2.70
2023-03-07T13:31:16.439Z,3.65
2023-03-07T13:33:43.590Z,4.82
2023-03-07T13:36:38.531Z,6.85
2023-03-07T13:39:36.139Z,5.85
2023-03-07T13:42:03.086Z,2.72
2023-03-07T13:44:39.550Z,4.05
2023-03-07T13:47:44.794Z,5.35
2023-03-07T13:50:38.776Z,1.85
2023-03-07T13:53:15.768Z,2.17
2023-03-07T13:55:50.833Z,2.42
2023-03-07T13:58:24.405Z,1.20
2023-03-07T14:00:56.193Z,1.48
2023-03-07T14:03:34.860Z,5.47
2023-03-07T14:06:11.267Z,1.83
2023-03-07T14:08:38.942Z,2.63
2023-03-07T14:11:16.632Z,4.30
2023-03-07T14:14:34.646Z,3.15
2023-03-07T14:17:21.042Z,6.10
2023-03-07T14:20:09.613Z,2.33
2023-03-07T14:23:18.413Z,6.47
2023-03-07T14:25:53.043Z,2.65
2023-03-07T14:28:26.593Z,6.72
2023-03-07T14:31:07.168Z,3.30
2023-03-07T14:33:37.772Z,4.43
2023-03-07T14:36:20.667Z,4.88
2023-03-07T14:38:48.754Z,5.20
2023-03-07T14:41:49.332Z,5.32
2023-03-07T14:44:55.640Z,5.22
2023-03-07T14:48:06.228Z,6.30
2023-03-07T14:50:34.053Z,2.60
2023-03-07T14:53:10.548Z,4.55
2023-03-07T14:55:43.331Z,2.90
2023-03-07T14:58:23.872Z,5.13
2023-03-07T15:01:15.863Z,2.65
2023-03-07T15:03:49.342Z,2.53
2023-03-07T15:06:22.791Z,2.90
2023-03-07T15:08:51.901Z,3.30
2023-03-07T15:11:45.416Z,1.75
2023-03-07T15:14:20.276Z,5.38
2023-03-07T15:16:54.113Z,2.80
2023-03-07T15:19:25.501Z,2.30
2023-03-07T15:21:58.928Z,2.72
2023-03-07T15:24:38.781Z,1.40
2023-03-07T15:27:10.340Z,10.27
2023-03-07T15:29:37.517Z,4.32
2023-03-07T15:32:07.348Z,3.08
2023-03-07T15:34:39.025Z,3.08
2023-03-07T15:37:53.339Z,5.47
2023-03-07T15:40:33.790Z,4.10
2023-03-07T15:43:04.697Z,6.88
2023-03-07T15:45:38.705Z,4.85
2023-03-07T15:48:48.502Z,9.82
2023-03-07T15:51:19.310Z,4.15
2023-03-07T15:54:03.431Z,2.05
2023-03-07T15:56:35.062Z,4.40
2023-03-07T15:59:17.015Z,9.52
2023-03-07T16:01:43.962Z,4.35
2023-03-07T16:04:37.124Z,5.68
2023-03-07T16:07:04.888Z,4.00
2023-03-07T16:09:31.697Z,3.33
2023-03-07T16:11:58.518Z,4.97
2023-03-07T16:14:29.319Z,6.35
2023-03-07T16:17:03.947Z,4.78
2023-03-07T16:19:31.255Z,6.53
2023-03-07T16:21:58.045Z,8.57
2023-03-07T16:24:24.890Z,12.77
2023-03-07T16:26:51.730Z,7.63
2023-03-07T16:29:22.717Z,13.23
2023-03-07T16:31:49.551Z,16.58
2023-03-07T16:34:22.687Z,9.38
2023-03-07T16:36:50.083Z,7.00
2023-03-07T16:39:18.305Z,4.70
2023-03-07T16:41:48.367Z,5.88
2023-03-07T16:44:20.889Z,6.97
2023-03-07T16:46:58.575Z,9.73
2023-03-07T16:49:25.339Z,4.88
2023-03-07T16:52:04.697Z,8.00
2023-03-07T16:54:32.419Z,9.15
2023-03-07T16:56:59.275Z,3.45
2023-03-07T16:59:35.831Z,18.88
2023-03-07T17:02:11.778Z,11.65
2023-03-07T17:04:38.577Z,6.88
2023-03-07T17:07:15.516Z,10.02
2023-03-07T17:09:42.845Z,9.55
2023-03-07T17:12:10.034Z,5.68
2023-03-07T17:14:36.953Z,12.82
2023-03-07T17:17:04.956Z,27.50
2023-03-07T17:19:33.394Z,25.20
2023-03-07T17:22:02.207Z,14.73
2023-03-07T17:24:30.029Z,12.73
2023-03-07T17:27:00.251Z,8.77
2023-03-07T17:29:43.475Z,7.13
2023-03-07T17:32:10.719Z,7.40
2023-03-07T17:34:39.702Z,5.30
2023-03-07T17:37:06.941Z,5.47
2023-03-07T17:39:34.730Z,3.50
2023-03-07T17:42:02.150Z,4.97
2023-03-07T17:44:29.204Z,2.10
2023-03-07T17:46:56.093Z,5.78
2023-03-07T17:49:23.352Z,3.38
2023-03-07T17:51:50.296Z,3.85
2023-03-07T17:54:17.311Z,3.33
2023-03-07T17:56:45.253Z,0.98
2023-03-07T17:59:12.087Z,1.65
2023-03-07T18:01:39.974Z,1.38
2023-03-07T18:04:06.832Z,3.97
2023-03-07T18:06:34.500Z,1.90
2023-03-07T18:09:05.181Z,2.58
2023-03-07T18:11:32.672Z,2.67
2023-03-07T18:13:59.730Z,2.60
2023-03-07T18:16:27.139Z,1.35
2023-03-07T18:19:00.091Z,5.00
2023-03-07T18:21:30.335Z,2.22
2023-03-07T18:23:57.602Z,2.72
2023-03-07T18:26:24.878Z,3.88
2023-03-07T18:28:53.750Z,4.82
2023-03-07T18:31:25.300Z,2.22
2023-03-07T18:33:53.276Z,1.35
2023-03-07T18:36:23.092Z,3.17
2023-03-07T18:38:50.592Z,1.40
2023-03-07T18:41:23.877Z,1.45
2023-03-07T18:43:53.103Z,3.70
2023-03-07T18:46:22.315Z,3.95
2023-03-07T18:48:49.779Z,3.83
2023-03-07T18:51:23.647Z,5.40
2023-03-07T18:53:58.736Z,9.02
2023-03-07T18:56:26.204Z,5.35
2023-03-07T18:58:56.006Z,4.45
2023-03-07T19:01:32.535Z,3.33
2023-03-07T19:04:03.287Z,4.65
2023-03-07T19:06:40.571Z,5.28
2023-03-07T19:09:27.774Z,6.03
2023-03-07T19:11:54.602Z,6.93
2023-03-07T19:14:21.400Z,4.60
2023-03-07T19:16:48.357Z,4.43
2023-03-07T19:19:15.446Z,9.85
2023-03-07T19:21:42.267Z,8.85
2023-03-07T19:24:11.279Z,7.72
2023-03-07T19:26:38.115Z,5.35
2023-03-07T19:29:04.950Z,10.98
2023-03-07T19:31:33.127Z,4.18
2023-03-07T19:34:03.364Z,7.05
2023-03-07T19:36:31.980Z,3.95
2023-03-07T19:39:02.096Z,4.78
2023-03-07T19:41:31.386Z,6.13
2023-03-07T19:43:59.980Z,7.45
2023-03-07T19:46:27.552Z,7.18
2023-03-07T19:48:54.440Z,7.75
2023-03-07T19:51:24.829Z,7.68
2023-03-07T19:53:52.319Z,3.35
2023-03-07T19:56:27.332Z,9.80
2023-03-07T19:58:54.950Z,7.72
2023-03-07T20:01:23.533Z,10.05
2023-03-07T20:03:50.812Z,13.88
2023-03-07T20:06:21.508Z,11.15
2023-03-07T20:08:53.042Z,5.70
2023-03-07T20:11:25.008Z,9.65
2023-03-07T20:13:55.920Z,11.63
2023-03-07T20:16:23.459Z,9.60
2023-03-07T20:18:52.546Z,6.95
2023-03-07T20:21:21.795Z,9.68
2023-03-07T20:23:49.005Z,7.43
2023-03-07T20:26:19.756Z,4.85
2023-03-07T20:28:46.517Z,5.70
2023-03-07T20:31:13.761Z,8.40
2023-03-07T20:33:45.378Z,6.60
2023-03-07T20:36:24.085Z,3.53
2023-03-07T20:38:54.631Z,6.35
2023-03-07T20:41:24.936Z,4.53
2023-03-07T20:43:53.099Z,3.00
2023-03-07T20:46:23.321Z,4.20
2023-03-07T20:48:53.977Z,5.40
2023-03-07T20:51:23.814Z,7.82
2023-03-07T20:54:06.084Z,2.65
2023-03-07T20:56:35.041Z,5.68
2023-03-07T20:59:02.077Z,5.45
2023-03-07T21:01:31.537Z,4.95
2023-03-07T21:04:07.983Z,6.65
2023-03-07T21:06:37.142Z,7.50
2023-03-07T21:09:09.951Z,7.13
2023-03-07T21:11:40.093Z,7.22
2023-03-07T21:14:06.954Z,7.03
2023-03-07T21:16:34.348Z,7.30
2023-03-07T21:19:03.789Z,9.35
2023-03-07T21:21:32.460Z,9.93
2023-03-07T21:23:59.753Z,8.65
2023-03-07T21:26:32.867Z,11.70
2023-03-07T21:29:00.117Z,10.33
2023-03-07T21:31:30.343Z,14.13
2023-03-07T21:34:07.215Z,9.50
2023-03-07T21:36:34.463Z,7.38
2023-03-07T21:39:03.995Z,10.38
2023-03-07T21:41:30.812Z,11.07
2023-03-07T21:43:58.336Z,10.45
2023-03-07T21:46:25.976Z,12.50
2023-03-07T21:48:53.102Z,9.98
2023-03-07T21:51:20.571Z,10.50
2023-03-07T21:53:47.471Z,11.85
2023-03-07T21:56:17.105Z,10.93
2023-03-07T21:58:47.317Z,9.98
2023-03-07T22:01:21.535Z,8.93
2023-03-07T22:03:51.310Z,12.32
2023-03-07T22:06:18.209Z,7.50
2023-03-07T22:08:45.169Z,8.23
2023-03-07T22:11:13.191Z,8.00
2023-03-07T22:13:41.555Z,7.68
2023-03-07T22:16:12.549Z,7.22
2023-03-07T22:18:39.741Z,7.55
2023-03-07T22:21:13.928Z,9.18
2023-03-07T22:23:40.982Z,4.43
2023-03-07T22:26:09.631Z,6.60
2023-03-07T22:28:37.202Z,7.65
2023-03-07T22:31:07.694Z,5.72
2023-03-07T22:33:34.616Z,9.95
2023-03-07T22:36:05.376Z,6.78
2023-03-07T22:38:32.507Z,6.65
2023-03-07T22:41:10.813Z,6.40
2023-03-07T22:43:37.844Z,5.20
2023-03-07T22:46:05.771Z,6.20
2023-03-07T22:48:33.018Z,10.55
2023-03-07T22:51:00.042Z,7.18
2023-03-07T22:53:32.073Z,7.55
2023-03-07T22:55:59.660Z,9.05
2023-03-07T22:58:27.606Z,8.02
2023-03-07T23:00:54.500Z,9.25
2023-03-07T23:03:21.297Z,7.65
2023-03-07T23:06:19.743Z,8.48
2023-03-07T23:08:49.468Z,9.88
2023-03-07T23:11:18.253Z,8.30
2023-03-07T23:13:45.761Z,7.68
2023-03-07T23:16:18.980Z,9.05
2023-03-07T23:18:46.515Z,10.18
2023-03-07T23:21:16.515Z,9.23
2023-03-07T23:23:44.307Z,7.25
2023-03-07T23:26:22.255Z,9.18
2023-03-07T23:28:49.376Z,9.38
2023-03-07T23:31:23.208Z,7.85
2023-03-07T23:33:50.769Z,9.98
2023-03-07T23:36:17.632Z,9.15
2023-03-07T23:38:47.501Z,10.25
2023-03-07T23:41:14.331Z,8.45
2023-03-07T23:43:41.085Z,9.38
2023-03-07T23:46:07.870Z,10.23
2023-03-07T23:48:34.700Z,16.15
2023-03-07T23:51:01.583Z,12.93
2023-03-07T23:53:28.381Z,12.30
2023-03-07T23:55:55.144Z,12.43
2023-03-07T23:58:21.895Z,13.02
